Time;durP1;ratioP1;P1;durP2;ratioP2;P2;SDS_P1;SDS_P2;PMS_P1;PMS_P2;Temp;Humidity;BMP_temperature;BMP_pressure;BME280_temperature;BME280_humidity;BME280_pressure;Samples;Min_cycle;Max_cycle;Signal;HPM_P1;HPM_P2
2022/09/25 00:02:06;;;;;;;;;;;;;;;14.13;75.25;100881.72;5027837;28;19996;-74
2022/09/25 00:04:31;;;;;;;;;;;;;;;14.12;75.06;100886.09;5032242;28;19963;-74
2022/09/25 00:06:57;;;;;;;;;;;;;;;14.18;75.08;100883.28;5028467;28;19931;-75
2022/09/25 00:09:22;;;;;;;;;;;;;;;14.15;74.95;100890.34;5028487;28;20019;-74
2022/09/25 00:11:48;;;;;;;;;;;;;;;14.08;75.08;100881.91;5028044;28;19921;-74
2022/09/25 00:14:13;;;;;;;;;;;;;;;14.11;74.85;100884.41;5027049;28;20006;-74
2022/09/25 00:16:38;;;;;;;;;;;;;;;14.09;75.09;100880.13;5028297;28;20417;-74
2022/09/25 00:21:51;;;;;;;;;;;;;;;13.97;75.53;100891.81;5028468;28;19949;-74
2022/09/25 00:24:16;;;;;;;;;;;;;;;14.10;74.92;100894.88;5007246;28;20008;-74
2022/09/25 00:26:42;;;;;;;;;;;;;;;14.15;74.54;100890.34;5030011;28;20062;-74
2022/09/25 00:29:09;;;;;;;;;;;;;;;14.13;74.28;100889.56;5056110;28;20393;-74
2022/09/25 00:31:34;;;;;;;;;;;;;;;14.09;74.76;100886.19;5052382;28;20269;-74
2022/09/25 00:34:01;;;;;;;;;;;;;;;14.10;74.53;100887.06;5044980;28;20058;-74
2022/09/25 00:36:26;;;;;;;;;;;;;;;14.16;74.42;100889.47;5032342;28;20112;-74
2022/09/25 00:38:53;;;;;;;;;;;;;;;14.11;74.25;100888.78;5051652;28;19921;-74
2022/09/25 00:41:20;;;;;;;;;;;;;;;14.09;74.83;100887.94;5052696;28;19919;-74
2022/09/25 00:43:49;;;;;;;;;;;;;;;14.13;74.55;100877.38;5050638;28;20298;-74
2022/09/25 00:46:26;;;;;;;;;;;;;;;14.09;74.05;100880.13;5049471;28;19927;-74
2022/09/25 00:49:04;;;;;;;;;;;;;;;14.03;74.39;100880.31;5040072;28;19991;-74
2022/09/25 00:51:33;;;;;;;;;;;;;;;14.08;74.33;100883.66;5018107;28;19940;-74
2022/09/25 00:54:03;;;;;;;;;;;;;;;14.08;74.07;100876.66;5042869;28;19985;-74
2022/09/25 00:56:30;;;;;;;;;;;;;;;14.07;74.09;100876.72;5034378;28;19913;-74
2022/09/25 00:58:56;;;;;;;;;;;;;;;14.00;74.73;100880.41;5024505;28;20013;-74
2022/09/25 01:01:22;;;;;;;;;;;;;;;14.03;74.20;100877.72;5031488;28;20072;-74
2022/09/25 01:03:47;;;;;;;;;;;;;;;14.08;74.09;100883.66;5033162;28;19944;-74
2022/09/25 01:06:13;;;;;;;;;;;;;;;14.05;74.23;100883.75;5037011;28;20024;-74
2022/09/25 01:08:39;;;;;;;;;;;;;;;14.03;74.15;100883.78;5030843;28;20388;-74
2022/09/25 01:11:04;;;;;;;;;;;;;;;14.05;73.84;100878.53;5031610;28;19928;-74
2022/09/25 01:13:29;;;;;;;;;;;;;;;13.98;74.77;100879.63;5046984;28;20843;-74
2022/09/25 01:16:04;;;;;;;;;;;;;;;13.97;74.97;100886.59;5050143;28;19924;-74
2022/09/25 01:18:36;;;;;;;;;;;;;;;14.07;74.54;100877.56;5054964;28;19924;-74
2022/09/25 01:21:01;;;;;;;;;;;;;;;14.05;73.90;100884.63;5047764;28;19972;-74
2022/09/25 01:23:42;;;;;;;;;;;;;;;14.08;74.12;100881.03;5047772;28;19948;-74
2022/09/25 01:26:27;;;;;;;;;;;;;;;14.08;73.81;100887.13;5050063;28;20480;-74
2022/09/25 01:28:55;;;;;;;;;;;;;;;13.98;74.55;100890.06;5049667;28;19928;-74
2022/09/25 01:31:26;;;;;;;;;;;;;;;14.03;74.23;100880.31;5052172;28;20377;-74
2022/09/25 01:33:56;;;;;;;;;;;;;;;14.03;74.18;100880.31;5050524;28;19978;-74
2022/09/25 01:36:28;;;;;;;;;;;;;;;14.02;74.27;100881.25;5050637;28;20365;-74
2022/09/25 01:38:57;;;;;;;;;;;;;;;14.00;74.24;100877.81;5054585;28;19971;-74
2022/09/25 01:41:31;;;;;;;;;;;;;;;14.01;74.34;100879.53;5057470;28;19916;-74
2022/09/25 01:44:02;;;;;;;;;;;;;;;14.07;73.89;100877.56;5050486;28;19983;-74
2022/09/25 01:46:32;;;;;;;;;;;;;;;14.00;74.42;100881.28;5044685;28;20015;-74
2022/09/25 01:49:00;;;;;;;;;;;;;;;13.99;74.71;100882.19;5054976;28;19928;-74
2022/09/25 01:51:31;;;;;;;;;;;;;;;13.96;74.69;100884.06;5048923;28;20454;-74
2022/09/25 01:54:01;;;;;;;;;;;;;;;13.96;74.20;100879.69;5049686;28;19928;-74
2022/09/25 01:56:36;;;;;;;;;;;;;;;14.03;74.24;100880.31;5050884;28;19973;-74
2022/09/25 01:59:07;;;;;;;;;;;;;;;14.01;73.86;100880.38;5049256;28;20381;-74
2022/09/25 02:01:37;;;;;;;;;;;;;;;13.97;73.92;100883.13;5053644;28;19924;-74
2022/09/25 02:04:06;;;;;;;;;;;;;;;14.07;73.86;100890.63;5049757;28;19916;-74
2022/09/25 02:06:32;;;;;;;;;;;;;;;14.04;73.81;100887.25;5049390;28;19925;-74
2022/09/25 02:09:03;;;;;;;;;;;;;;;14.00;74.26;100883.88;5032470;28;19924;-75
2022/09/25 02:11:31;;;;;;;;;;;;;;;13.94;74.80;100888.47;5049881;28;19923;-75
2022/09/25 02:14:01;;;;;;;;;;;;;;;13.95;74.89;100883.19;5027036;28;20393;-74
2022/09/25 02:16:30;;;;;;;;;;;;;;;13.98;74.67;100880.47;5038627;28;19925;-75
2022/09/25 02:21:42;;;;;;;;;;;;;;;14.02;74.45;100882.09;5027266;28;19943;-74
2022/09/25 02:24:10;;;;;;;;;;;;;;;14.09;73.95;100878.34;5033354;28;19921;-74
2022/09/25 02:26:37;;;;;;;;;;;;;;;14.05;74.69;100884.63;5028947;28;19921;-74
2022/09/25 02:29:03;;;;;;;;;;;;;;;13.98;75.27;100877.88;5030479;28;19945;-74
2022/09/25 02:31:34;;;;;;;;;;;;;;;14.07;74.70;100884.53;5028864;28;19956;-74
2022/09/25 02:34:00;;;;;;;;;;;;;;;13.99;75.12;100894.41;5020881;28;19929;-74
2022/09/25 02:36:25;;;;;;;;;;;;;;;14.05;74.54;100883.75;5030195;28;20290;-74
2022/09/25 02:38:52;;;;;;;;;;;;;;;13.97;75.28;100886.59;5030326;28;20370;-74
2022/09/25 02:41:32;;;;;;;;;;;;;;;14.04;75.05;100884.66;5029322;28;20366;-74
2022/09/25 02:44:10;;;;;;;;;;;;;;;14.07;74.66;100885.41;5036320;28;19947;-74
2022/09/25 02:46:44;;;;;;;;;;;;;;;14.08;74.92;100883.66;5051088;28;20439;-74
2022/09/25 02:49:09;;;;;;;;;;;;;;;14.05;74.81;100889.84;5055448;28;19924;-74
2022/09/25 02:51:48;;;;;;;;;;;;;;;14.03;75.10;100889.00;5049663;28;19932;-74
2022/09/25 02:54:21;;;;;;;;;;;;;;;14.00;75.13;100883.03;5046981;28;19964;-74
2022/09/25 02:56:51;;;;;;;;;;;;;;;13.97;75.32;100891.81;5042640;28;19952;-74
2022/09/25 02:59:23;;;;;;;;;;;;;;;14.06;75.30;100885.44;5035530;28;20007;-74
2022/09/25 03:01:48;;;;;;;;;;;;;;;14.04;75.71;100884.66;5047396;28;19991;-74
2022/09/25 03:04:16;;;;;;;;;;;;;;;14.08;75.67;100886.25;5048248;28;20367;-74
2022/09/25 03:06:42;;;;;;;;;;;;;;;14.08;75.38;100887.13;5046559;28;19990;-74
2022/09/25 03:09:09;;;;;;;;;;;;;;;14.06;75.68;100886.28;5050945;28;19948;-74
2022/09/25 03:11:39;;;;;;;;;;;;;;;14.06;75.88;100882.81;5033816;28;20432;-74
2022/09/25 03:14:05;;;;;;;;;;;;;;;14.10;75.48;100887.91;5048232;28;19929;-74
2022/09/25 03:16:33;;;;;;;;;;;;;;;14.05;75.54;100891.59;5047387;28;19994;-74
2022/09/25 03:18:59;;;;;;;;;;;;;;;14.07;75.77;100888.03;5052872;28;19924;-74
2022/09/25 03:21:24;;;;;;;;;;;;;;;14.06;75.82;100888.91;5047041;28;19921;-74
2022/09/25 03:23:49;;;;;;;;;;;;;;;13.99;75.97;100894.41;5048786;28;19925;-74
2022/09/25 03:26:15;;;;;;;;;;;;;;;14.05;75.61;100891.59;5047982;28;19944;-74
2022/09/25 03:28:40;;;;;;;;;;;;;;;14.09;75.29;100885.34;5049541;28;19995;-74
2022/09/25 03:31:06;;;;;;;;;;;;;;;14.10;75.56;100887.06;5048862;28;19924;-74
2022/09/25 03:33:33;;;;;;;;;;;;;;;14.07;75.54;100885.41;5055997;28;19924;-74
2022/09/25 03:35:59;;;;;;;;;;;;;;;14.07;75.86;100888.03;5050925;28;20007;-74
2022/09/25 03:38:24;;;;;;;;;;;;;;;14.08;75.47;100883.66;5044901;28;19923;-74
2022/09/25 03:40:50;;;;;;;;;;;;;;;14.08;75.59;100881.03;5029943;28;19917;-74
2022/09/25 03:43:15;;;;;;;;;;;;;;;14.10;75.62;100887.06;5026738;28;19921;-74
2022/09/25 03:45:40;;;;;;;;;;;;;;;14.08;75.69;100887.13;5038597;28;20738;-74
2022/09/25 03:48:05;;;;;;;;;;;;;;;14.07;75.59;100879.31;5012999;28;19921;-74
2022/09/25 03:50:31;;;;;;;;;;;;;;;14.07;75.59;100879.31;5029773;28;20035;-74
2022/09/25 03:52:56;;;;;;;;;;;;;;;14.03;75.05;100882.94;5047917;28;19943;-74
2022/09/25 03:55:21;;;;;;;;;;;;;;;14.01;75.71;100884.75;5043410;28;19931;-74
2022/09/25 03:57:46;;;;;;;;;;;;;;;13.99;75.90;100887.44;5024162;28;19925;-74
2022/09/25 04:00:12;;;;;;;;;;;;;;;14.02;75.35;100886.47;4993478;28;19969;-74
2022/09/25 04:02:37;;;;;;;;;;;;;;;13.98;75.42;100887.47;5029360;28;20279;-74
2022/09/25 04:05:03;;;;;;;;;;;;;;;14.00;75.38;100883.03;5027424;28;19918;-75
2022/09/25 04:07:28;;;;;;;;;;;;;;;14.01;75.12;100884.75;5028203;28;19954;-74
2022/09/25 04:09:53;;;;;;;;;;;;;;;13.83;74.68;100886.22;5041139;28;19921;-74
2022/09/25 04:12:20;;;;;;;;;;;;;;;13.94;74.02;100891.09;5046631;28;19921;-74
2022/09/25 04:14:45;;;;;;;;;;;;;;;13.96;73.18;100881.44;5028412;28;19949;-75
2022/09/25 04:17:10;;;;;;;;;;;;;;;13.91;73.84;100889.41;5029195;28;19975;-74
2022/09/25 04:19:36;;;;;;;;;;;;;;;13.80;73.54;100886.31;5044873;28;20270;-74
2022/09/25 04:22:01;;;;;;;;;;;;;;;13.88;73.68;100888.69;5044873;28;19921;-74
2022/09/25 04:27:10;;;;;;;;;;;;;;;13.72;73.41;100883.94;5027219;28;19927;-74
2022/09/25 04:29:36;;;;;;;;;;;;;;;13.70;73.14;100893.56;5028778;28;20007;-74
2022/09/25 04:34:45;;;;;;;;;;;;;;;13.73;72.97;100895.22;5045730;28;20028;-74
2022/09/25 04:37:12;;;;;;;;;;;;;;;13.83;73.15;100893.19;5034053;28;20421;-74
2022/09/25 04:39:38;;;;;;;;;;;;;;;13.82;72.36;100892.31;5027292;28;19921;-74
2022/09/25 04:42:03;;;;;;;;;;;;;;;13.74;72.97;100892.59;5026730;28;20009;-75
2022/09/25 04:44:29;;;;;;;;;;;;;;;13.82;73.09;100900.16;5029017;28;19928;-75
2022/09/25 04:46:55;;;;;;;;;;;;;;;13.74;72.17;100902.16;5009551;28;19921;-74
2022/09/25 04:49:20;;;;;;;;;;;;;;;13.72;73.00;100899.63;5027750;28;19917;-74
2022/09/25 04:51:45;;;;;;;;;;;;;;;13.75;72.78;100904.75;5028609;28;19921;-74
2022/09/25 04:54:10;;;;;;;;;;;;;;;13.75;72.75;100909.97;5034557;28;20340;-74
2022/09/25 04:56:36;;;;;;;;;;;;;;;13.79;72.96;100902.03;5030225;28;20010;-74
2022/09/25 04:59:01;;;;;;;;;;;;;;;13.80;72.15;100903.72;5038401;28;19917;-74
2022/09/25 05:01:26;;;;;;;;;;;;;;;13.75;71.85;100898.66;5026874;28;19967;-74
2022/09/25 05:03:55;;;;;;;;;;;;;;;13.67;72.46;100904.09;5033195;28;19952;-74
2022/09/25 05:06:21;;;;;;;;;;;;;;;13.77;71.61;100902.06;5037946;28;19953;-75
2022/09/25 05:08:48;;;;;;;;;;;;;;;13.75;71.75;100904.75;5028141;28;19913;-74
2022/09/25 05:11:13;;;;;;;;;;;;;;;13.69;71.88;100904.94;5028807;28;20021;-74
2022/09/25 05:13:39;;;;;;;;;;;;;;;13.73;72.53;100905.66;5030980;28;20035;-74
2022/09/25 05:16:05;;;;;;;;;;;;;;;13.68;72.27;100911.06;5033116;28;19929;-74
2022/09/25 05:18:30;;;;;;;;;;;;;;;13.62;71.99;100905.13;5035999;28;19921;-74
2022/09/25 05:20:56;;;;;;;;;;;;;;;13.61;71.91;100908.66;5020673;28;19924;-74
2022/09/25 05:23:22;;;;;;;;;;;;;;;13.58;72.23;100919.19;5030603;28;19929;-74
2022/09/25 05:25:51;;;;;;;;;;;;;;;13.64;71.62;100913.78;5035806;28;19925;-74
2022/09/25 05:28:17;;;;;;;;;;;;;;;13.68;71.29;100911.06;5045142;28;20042;-74
2022/09/25 05:30:42;;;;;;;;;;;;;;;13.59;71.72;100915.66;5051883;28;20392;-74
2022/09/25 05:33:08;;;;;;;;;;;;;;;13.66;71.50;100918.06;5044191;28;19925;-74
2022/09/25 05:35:34;;;;;;;;;;;;;;;13.68;71.53;100915.41;5029708;28;19965;-74
2022/09/25 05:37:59;;;;;;;;;;;;;;;13.71;71.70;100916.19;5029557;28;20007;-74
2022/09/25 05:40:25;;;;;;;;;;;;;;;13.75;71.22;100915.19;5032651;28;20067;-74
2022/09/25 05:42:50;;;;;;;;;;;;;;;13.79;71.22;100920.31;5030825;28;19999;-74
2022/09/25 05:45:17;;;;;;;;;;;;;;;13.79;70.63;100920.31;5032374;28;19933;-74
2022/09/25 05:47:42;;;;;;;;;;;;;;;13.72;70.48;100917.03;5028985;28;20019;-74
2022/09/25 05:50:09;;;;;;;;;;;;;;;13.67;70.76;100918.94;5028687;28;19997;-74
2022/09/25 05:52:35;;;;;;;;;;;;;;;13.80;70.84;100915.03;5024369;28;20290;-74
2022/09/25 05:55:02;;;;;;;;;;;;;;;13.86;70.27;100919.19;5031806;28;19925;-74
2022/09/25 05:57:29;;;;;;;;;;;;;;;13.77;70.93;100918.59;5035374;28;19931;-74
2022/09/25 05:59:54;;;;;;;;;;;;;;;13.78;71.11;100922.06;5048867;28;19924;-74
2022/09/25 06:02:19;;;;;;;;;;;;;;;13.79;71.08;100917.69;5036059;28;19975;-74
2022/09/25 06:04:45;;;;;;;;;;;;;;;13.75;71.14;100922.16;5029990;28;20012;-74
2022/09/25 06:07:10;;;;;;;;;;;;;;;13.69;70.24;100925.81;5032651;28;19917;-74
2022/09/25 06:09:35;;;;;;;;;;;;;;;13.75;69.96;100923.03;5030534;28;20344;-74
2022/09/25 06:12:01;;;;;;;;;;;;;;;13.73;70.02;100922.19;5032917;28;19921;-74
2022/09/25 06:14:26;;;;;;;;;;;;;;;13.77;69.66;100925.56;5050255;28;20355;-75
2022/09/25 06:16:51;;;;;;;;;;;;;;;13.70;70.38;100935.34;5058868;28;20296;-74
2022/09/25 06:19:17;;;;;;;;;;;;;;;13.72;70.54;100933.56;5060254;28;20501;-75
2022/09/25 06:21:43;;;;;;;;;;;;;;;13.77;71.09;100929.03;5039122;28;19921;-74
2022/09/25 06:24:09;;;;;;;;;;;;;;;13.70;70.36;100932.72;5031018;28;19925;-74
2022/09/25 06:26:35;;;;;;;;;;;;;;;13.78;70.66;100929.91;5036586;28;20366;-74
2022/09/25 06:29:01;;;;;;;;;;;;;;;13.73;70.25;100934.38;5029211;28;19924;-74
2022/09/25 06:31:26;;;;;;;;;;;;;;;13.79;69.28;100934.19;5045473;28;20404;-74
2022/09/25 06:33:51;;;;;;;;;;;;;;;13.71;69.35;100941.44;5028286;28;19921;-74
2022/09/25 06:36:17;;;;;;;;;;;;;;;13.69;70.26;100936.25;5030293;28;19925;-74
2022/09/25 06:38:42;;;;;;;;;;;;;;;13.71;70.31;100942.28;5029341;28;19975;-74
2022/09/25 06:41:07;;;;;;;;;;;;;;;13.70;69.30;100939.72;5033029;28;19916;-74
2022/09/25 06:43:33;;;;;;;;;;;;;;;13.62;70.33;100947.75;5049582;28;19917;-74
2022/09/25 06:46:00;;;;;;;;;;;;;;;13.76;69.28;100940.38;5022063;28;19918;-74
2022/09/25 06:48:25;;;;;;;;;;;;;;;13.81;69.85;100944.59;5028477;28;19925;-74
2022/09/25 06:50:52;;;;;;;;;;;;;;;13.79;69.37;100946.41;5028989;28;20004;-74
2022/09/25 06:53:18;;;;;;;;;;;;;;;13.68;70.47;100951.97;5027595;28;19993;-74
2022/09/25 06:55:44;;;;;;;;;;;;;;;13.71;70.31;100946.66;5027358;28;19921;-74
2022/09/25 06:58:10;;;;;;;;;;;;;;;13.76;70.31;100955.19;5024919;28;20297;-75
2022/09/25 07:00:38;;;;;;;;;;;;;;;13.80;69.95;100956.81;5029431;28;19928;-75
2022/09/25 07:05:47;;;;;;;;;;;;;;;13.77;69.98;100959.50;5028684;28;20075;-75
2022/09/25 07:08:15;;;;;;;;;;;;;;;13.63;69.89;100966.88;5028258;28;20007;-75
2022/09/25 07:10:50;;;;;;;;;;;;;;;13.74;69.56;100963.06;5046926;28;19924;-74
2022/09/25 07:13:16;;;;;;;;;;;;;;;13.81;69.45;100962.88;5046134;28;19924;-75
2022/09/25 07:15:41;;;;;;;;;;;;;;;13.66;69.76;100978.09;5045498;28;20197;-75
2022/09/25 07:18:07;;;;;;;;;;;;;;;13.68;69.99;100970.22;5043886;28;20507;-75
2022/09/25 07:20:32;;;;;;;;;;;;;;;13.76;68.98;100966.47;5031730;28;20293;-75
2022/09/25 07:23:02;;;;;;;;;;;;;;;13.73;69.24;100970.94;5028582;28;19940;-75
2022/09/25 07:25:28;;;;;;;;;;;;;;;13.86;68.77;100972.28;5040016;28;19936;-75
2022/09/25 07:27:54;;;;;;;;;;;;;;;13.85;69.54;100980.19;5022047;28;20393;-75
2022/09/25 07:30:19;;;;;;;;;;;;;;;13.82;69.16;100982.88;5034671;28;19932;-75
2022/09/25 07:32:44;;;;;;;;;;;;;;;13.76;67.99;100974.31;5049600;28;19928;-75
2022/09/25 07:35:09;;;;;;;;;;;;;;;13.76;68.90;100976.06;5045287;28;19925;-75
2022/09/25 07:37:35;;;;;;;;;;;;;;;13.77;69.66;100977.78;5030114;28;19925;-75
2022/09/25 07:40:06;;;;;;;;;;;;;;;13.88;69.15;100980.91;5029109;28;20042;-75
2022/09/25 07:42:32;;;;;;;;;;;;;;;13.87;69.22;100987.06;5026364;28;20059;-75
2022/09/25 07:44:57;;;;;;;;;;;;;;;13.70;69.15;100990.16;5037807;28;20011;-75
2022/09/25 07:47:22;;;;;;;;;;;;;;;13.72;68.95;100980.56;5029000;28;19925;-75
2022/09/25 07:49:48;;;;;;;;;;;;;;;13.90;68.31;100980.88;5043520;28;19921;-75
2022/09/25 07:52:13;;;;;;;;;;;;;;;13.71;69.47;100991.03;5026374;28;19925;-75
2022/09/25 07:54:38;;;;;;;;;;;;;;;13.70;68.06;100998.00;5026135;28;19933;-75
2022/09/25 07:57:05;;;;;;;;;;;;;;;13.65;68.63;100988.56;5040338;28;20208;-75
2022/09/25 07:59:30;;;;;;;;;;;;;;;13.63;67.94;100988.63;5027502;28;19983;-75
2022/09/25 08:01:56;;;;;;;;;;;;;;;13.63;69.36;100991.25;5028961;28;19917;-75
2022/09/25 08:04:22;;;;;;;;;;;;;;;13.69;68.42;100995.44;5028779;28;20321;-75
2022/09/25 08:06:47;;;;;;;;;;;;;;;13.66;68.35;100990.28;5048921;28;19963;-75
2022/09/25 08:09:12;;;;;;;;;;;;;;;13.69;69.29;100988.47;5050370;28;19920;-75
2022/09/25 08:11:38;;;;;;;;;;;;;;;13.81;69.29;100987.25;5031048;28;20335;-75
2022/09/25 08:14:03;;;;;;;;;;;;;;;13.85;68.17;100994.06;5050864;28;19929;-75
2022/09/25 08:16:28;;;;;;;;;;;;;;;13.72;69.02;100997.97;5050467;28;19925;-75
2022/09/25 08:18:53;;;;;;;;;;;;;;;13.84;67.38;100995.00;5057652;28;19917;-75
2022/09/25 08:21:19;;;;;;;;;;;;;;;13.72;67.84;100988.38;5046624;28;19931;-75
2022/09/25 08:23:48;;;;;;;;;;;;;;;13.69;67.90;100991.09;5027216;28;20305;-75
2022/09/25 08:26:14;;;;;;;;;;;;;;;13.64;68.74;100994.72;5031385;28;19913;-75
2022/09/25 08:28:39;;;;;;;;;;;;;;;13.73;67.78;100992.69;5056893;28;19974;-75
2022/09/25 08:31:05;;;;;;;;;;;;;;;13.73;67.19;100992.69;5044313;28;20043;-74
2022/09/25 08:33:31;;;;;;;;;;;;;;;13.71;68.02;100997.09;5032794;28;19925;-75
2022/09/25 08:35:57;;;;;;;;;;;;;;;13.66;67.77;101005.94;5008699;28;20391;-75
2022/09/25 08:38:25;;;;;;;;;;;;;;;13.79;67.59;101007.31;5030961;28;19921;-74
2022/09/25 08:40:50;;;;;;;;;;;;;;;13.77;67.68;101006.50;5033837;28;19917;-74
2022/09/25 08:43:19;;;;;;;;;;;;;;;13.71;68.55;101007.56;5028506;28;19924;-75
2022/09/25 08:51:15;;;;;;;;;;;;;;;13.72;66.24;101014.50;5030998;28;20361;-75
2022/09/25 08:53:45;;;;;;;;;;;;;;;13.67;66.03;101010.31;5031677;28;20016;-75
2022/09/25 08:56:16;;;;;;;;;;;;;;;13.68;66.18;101010.25;5033900;28;19932;-75
2022/09/25 08:58:53;;;;;;;;;;;;;;;13.74;66.56;101011.81;5030652;28;19921;-75
2022/09/25 09:01:35;;;;;;;;;;;;;;;13.80;66.57;101013.38;5043027;28;19921;-75
2022/09/25 09:04:06;;;;;;;;;;;;;;;13.84;67.44;101009.78;5051070;28;19924;-74
2022/09/25 09:06:32;;;;;;;;;;;;;;;13.79;67.57;101016.91;5051565;28;19928;-75
2022/09/25 09:09:04;;;;;;;;;;;;;;;13.92;67.07;101019.09;5053595;28;20000;-75
2022/09/25 09:11:33;;;;;;;;;;;;;;;13.95;66.78;101010.31;5052489;28;20381;-74
2022/09/25 09:14:02;;;;;;;;;;;;;;;13.93;66.98;101009.50;5051194;28;19982;-74
2022/09/25 09:16:31;;;;;;;;;;;;;;;14.06;66.80;101005.59;5052666;28;19921;-75
2022/09/25 09:18:56;;;;;;;;;;;;;;;14.09;66.99;101006.38;5051053;28;19917;-75
2022/09/25 09:21:21;;;;;;;;;;;;;;;14.13;67.85;101007.97;5051127;28;19932;-75
2022/09/25 09:24:08;;;;;;;;;;;;;;;14.21;66.68;101007.72;5050669;28;20556;-75
2022/09/25 09:26:52;;;;;;;;;;;;;;;14.25;66.52;101007.59;5050593;28;19924;-75
2022/09/25 09:29:20;;;;;;;;;;;;;;;14.18;65.00;101003.47;5053504;28;19939;-75
2022/09/25 09:32:10;;;;;;;;;;;;;;;14.17;65.65;100999.16;5048664;28;19925;-74
2022/09/25 09:34:42;;;;;;;;;;;;;;;14.19;64.89;100999.94;5042542;28;19929;-74
2022/09/25 09:37:28;;;;;;;;;;;;;;;14.21;65.32;100994.66;5036560;28;19937;-74
2022/09/25 09:39:59;;;;;;;;;;;;;;;14.20;65.12;101006.91;5028973;28;19925;-75
2022/09/25 09:42:31;;;;;;;;;;;;;;;14.22;62.52;100996.38;5034745;28;19925;-75
2022/09/25 09:45:02;;;;;;;;;;;;;;;14.25;62.93;101001.50;5030870;28;19990;-75
2022/09/25 09:47:38;;;;;;;;;;;;;;;14.11;63.41;101003.72;5045855;28;19912;-74
2022/09/25 09:50:19;;;;;;;;;;;;;;;14.15;64.58;100990.50;5039550;28;20405;-74
2022/09/25 09:52:46;;;;;;;;;;;;;;;14.17;62.44;100987.84;5030237;28;19929;-74
2022/09/25 09:55:28;;;;;;;;;;;;;;;14.22;63.01;100989.41;5029562;28;19932;-75
2022/09/25 09:57:56;;;;;;;;;;;;;;;14.27;62.36;100989.25;5037826;28;19921;-75
2022/09/25 10:00:22;;;;;;;;;;;;;;;14.17;62.28;100991.31;5030431;28;19968;-74
2022/09/25 10:02:51;;;;;;;;;;;;;;;14.17;62.79;100985.22;5029301;28;19921;-75
2022/09/25 10:05:25;;;;;;;;;;;;;;;14.23;62.76;100980.63;5027234;28;20405;-74
2022/09/25 10:07:51;;;;;;;;;;;;;;;14.31;61.72;100978.66;5032149;28;20436;-74
2022/09/25 10:10:16;;;;;;;;;;;;;;;14.14;61.31;100975.75;5032224;28;19921;-75
2022/09/25 10:12:50;;;;;;;;;;;;;;;14.26;59.93;100971.88;5029890;28;19921;-74
2022/09/25 10:15:29;;;;;;;;;;;;;;;14.32;59.59;100967.28;5032479;28;19924;-74
2022/09/25 10:17:56;;;;;;;;;;;;;;;14.43;61.54;100972.16;5030502;28;20480;-75
2022/09/25 10:20:22;;;;;;;;;;;;;;;14.42;59.05;100966.97;5025670;28;19963;-74
2022/09/25 10:22:49;;;;;;;;;;;;;;;14.37;59.76;100971.50;5029900;28;19964;-74
2022/09/25 10:25:32;;;;;;;;;;;;;;;14.37;60.16;100966.28;5016954;28;19975;-74
2022/09/25 10:27:58;;;;;;;;;;;;;;;14.44;61.15;100962.56;5025894;28;20290;-74
2022/09/25 10:30:23;;;;;;;;;;;;;;;14.45;60.42;100975.56;5027800;28;19928;-74
2022/09/25 10:32:59;;;;;;;;;;;;;;;14.49;60.84;100977.19;5031215;28;19928;-74
2022/09/25 10:35:25;;;;;;;;;;;;;;;14.44;59.29;100962.56;5032766;28;19925;-74
2022/09/25 10:37:52;;;;;;;;;;;;;;;14.46;59.98;100968.59;5029572;28;20404;-74
2022/09/25 10:40:26;;;;;;;;;;;;;;;14.51;58.97;100970.13;5028531;28;19925;-75
2022/09/25 10:43:02;;;;;;;;;;;;;;;14.57;58.94;100969.06;5029091;28;19925;-74
2022/09/25 10:45:30;;;;;;;;;;;;;;;14.28;59.19;100973.53;5028609;28;19921;-74
2022/09/25 10:50:39;;;;;;;;;;;;;;;14.58;59.04;100958.56;5056575;28;20094;-75
2022/09/25 10:53:06;;;;;;;;;;;;;;;14.60;57.26;100950.66;5047816;28;19924;-74
2022/09/25 10:55:35;;;;;;;;;;;;;;;14.60;57.10;100953.28;5048928;28;20015;-74
2022/09/25 10:58:01;;;;;;;;;;;;;;;14.70;57.36;100945.06;5047771;28;19967;-74
2022/09/25 11:00:27;;;;;;;;;;;;;;;14.65;55.44;100949.59;5048348;28;19982;-74
2022/09/25 11:02:55;;;;;;;;;;;;;;;14.73;55.08;100949.34;5041784;28;19925;-74
2022/09/25 11:05:23;;;;;;;;;;;;;;;14.74;53.75;100951.06;5029073;28;20366;-75
2022/09/25 11:07:53;;;;;;;;;;;;;;;14.65;54.51;100954.00;5036928;28;19957;-75
2022/09/25 11:10:24;;;;;;;;;;;;;;;14.77;55.33;100951.81;5038420;28;20004;-74
2022/09/25 11:12:51;;;;;;;;;;;;;;;14.75;54.42;100958.00;5030405;28;20318;-74
2022/09/25 11:15:22;;;;;;;;;;;;;;;14.84;54.80;100958.53;5039683;28;19932;-75
2022/09/25 11:17:51;;;;;;;;;;;;;;;14.83;55.39;100963.81;5049837;28;19921;-75
2022/09/25 11:20:30;;;;;;;;;;;;;;;14.79;54.63;100970.09;5032940;28;19913;-74
2022/09/25 11:23:04;;;;;;;;;;;;;;;14.84;55.39;100961.16;5026501;28;19921;-74
2022/09/25 11:25:34;;;;;;;;;;;;;;;14.73;54.14;100958.03;5032904;28;19929;-74
2022/09/25 11:28:04;;;;;;;;;;;;;;;14.90;54.28;100957.47;5027977;28;20008;-74
2022/09/25 11:30:37;;;;;;;;;;;;;;;14.78;53.38;100964.00;5022252;28;20015;-74
2022/09/25 11:33:05;;;;;;;;;;;;;;;14.92;53.35;100958.25;5028096;28;20051;-74
2022/09/25 11:35:49;;;;;;;;;;;;;;;14.93;51.03;100951.28;5027384;28;19913;-74
2022/09/25 11:41:37;;;;;;;;;;;;;;;14.95;51.45;100946.84;5030650;28;20401;-74
2022/09/25 11:44:12;;;;;;;;;;;;;;;15.01;54.49;100950.09;5027838;28;20317;-74
2022/09/25 11:46:38;;;;;;;;;;;;;;;14.99;52.35;100949.28;5033876;28;20405;-74
2022/09/25 11:49:03;;;;;;;;;;;;;;;15.04;52.94;100943.88;5036469;28;19978;-74
2022/09/25 11:51:35;;;;;;;;;;;;;;;14.95;51.83;100945.06;5029298;28;19917;-74
2022/09/25 11:54:00;;;;;;;;;;;;;;;14.93;50.66;100946.03;5027244;28;20541;-74
2022/09/25 11:56:45;;;;;;;;;;;;;;;14.91;49.76;100942.63;5027828;28;19921;-74
2022/09/25 11:59:22;;;;;;;;;;;;;;;14.94;50.25;100930.31;5024876;28;20031;-74
2022/09/25 12:01:53;;;;;;;;;;;;;;;14.99;51.82;100925.75;5027397;28;19918;-74
2022/09/25 12:04:29;;;;;;;;;;;;;;;14.94;49.96;100926.81;5027311;28;20282;-74
2022/09/25 12:06:57;;;;;;;;;;;;;;;15.05;50.60;100924.66;5026702;28;19943;-74
2022/09/25 12:09:48;;;;;;;;;;;;;;;14.96;51.65;100923.25;5026761;28;19921;-74
2022/09/25 12:12:23;;;;;;;;;;;;;;;14.98;49.44;100915.34;5007669;28;19932;-74
2022/09/25 12:14:56;;;;;;;;;;;;;;;15.03;50.47;100921.25;5026965;28;19917;-74
2022/09/25 12:17:46;;;;;;;;;;;;;;;14.99;50.33;100917.91;5025974;28;19913;-74
2022/09/25 12:20:30;;;;;;;;;;;;;;;14.85;51.07;100923.66;5028341;28;19972;-75
2022/09/25 12:22:59;;;;;;;;;;;;;;;14.95;50.16;100920.69;5030604;28;19921;-75
2022/09/25 12:25:24;;;;;;;;;;;;;;;14.88;50.37;100925.28;5042701;28;19936;-75
2022/09/25 12:27:49;;;;;;;;;;;;;;;14.89;48.69;100908.66;5035452;28;20424;-74
2022/09/25 12:30:19;;;;;;;;;;;;;;;15.03;48.64;100905.56;5031775;28;19921;-75
2022/09/25 12:33:06;;;;;;;;;;;;;;;15.02;49.57;100903.84;5030543;28;19956;-74
2022/09/25 12:35:46;;;;;;;;;;;;;;;15.03;50.72;100906.44;5029330;28;19927;-75
2022/09/25 12:38:17;;;;;;;;;;;;;;;15.08;49.60;100898.38;5053787;28;20111;-74
2022/09/25 12:40:53;;;;;;;;;;;;;;;15.05;49.02;100896.75;5054252;28;20435;-74
2022/09/25 12:43:26;;;;;;;;;;;;;;;15.09;48.94;100900.97;5051903;28;19921;-75
2022/09/25 12:45:57;;;;;;;;;;;;;;;15.19;50.13;100902.31;5044072;28;19921;-74
2022/09/25 12:48:22;;;;;;;;;;;;;;;15.06;48.78;100898.47;5052944;28;20389;-75
2022/09/25 12:50:53;;;;;;;;;;;;;;;15.07;47.77;100899.28;5050458;28;19987;-75
2022/09/25 12:53:24;;;;;;;;;;;;;;;14.98;46.06;100895.25;5061051;28;20320;-74
2022/09/25 12:55:54;;;;;;;;;;;;;;;15.01;46.51;100900.38;5050479;28;20296;-74
2022/09/25 12:58:38;;;;;;;;;;;;;;;14.94;46.14;100891.06;5055220;28;20431;-74
2022/09/25 13:01:19;;;;;;;;;;;;;;;14.93;47.36;100889.34;5044536;28;20398;-74
2022/09/25 13:03:54;;;;;;;;;;;;;;;14.95;48.22;100890.13;5047821;28;19921;-74
2022/09/25 13:06:37;;;;;;;;;;;;;;;14.98;47.17;100884.78;5045429;28;20413;-74
2022/09/25 13:09:26;;;;;;;;;;;;;;;15.04;46.53;100870.63;5046545;28;19989;-74